Hamoir, Belgium
Current Conditions -  °F | °C
As of 1:50 AM on Wednesday 22 Oct 2014 (Local Time) from EBLG Reporting Station
Broken Clouds Broken Clouds  
Wind Chill: 38°   Ceiling: 3600
Heat Index: 45°   Visibility: 6mi
Dew Point: 39°   Wind: 14mph
Humidity: 81%   Direction: 260°W
Pressure: 29.94"   Gusts: NA
Location:  50.43°N, 5.53°E
Report Text: EBLG 212350Z 26012KT 9999 BKN036 07/04 Q1014 TEMPO 4000 SHRA
Loading
Personal Weather Stations






























Interactive Weather Map
Tropical Storm Tracking
New forecast layout! Learn more

10-Day Weather Forecast

Advertisements
Track Severe Weather on mobile